createdAt,value
2023-04-30T00:00:00.085Z,10.11
2023-04-30T00:00:34.096Z,10.11
2023-04-30T00:01:03.839Z,10.11
2023-04-30T00:01:37.047Z,10.11
2023-04-30T00:02:08.163Z,10.11
2023-04-30T00:02:41.044Z,10.11
2023-04-30T00:03:12.102Z,10.11
2023-04-30T00:03:44.854Z,10.11
2023-04-30T00:04:16.130Z,10.11
2023-04-30T00:04:48.747Z,10.11
2023-04-30T00:05:20.339Z,10.11
2023-04-30T00:05:52.811Z,10.11
2023-04-30T00:06:25.519Z,10.11
2023-04-30T00:06:56.680Z,10.11
2023-04-30T00:07:28.131Z,10.11
2023-04-30T00:08:00.833Z,10.11
2023-04-30T00:08:32.116Z,10.11
2023-04-30T00:09:04.687Z,10.11
2023-04-30T00:09:36.142Z,10.11
2023-04-30T00:10:09.216Z,10.11
2023-04-30T00:10:39.947Z,10.11
2023-04-30T00:11:12.919Z,10.11
2023-04-30T00:11:44.157Z,10.11
2023-04-30T00:12:16.753Z,10.11
2023-04-30T00:12:48.044Z,10.11
2023-04-30T00:13:20.974Z,10.11
2023-04-30T00:13:52.105Z,10.11
2023-04-30T00:14:24.811Z,10.11
2023-04-30T00:14:56.089Z,10.11
2023-04-30T00:15:30.207Z,10.11
2023-04-30T00:16:00.391Z,10.11
2023-04-30T00:16:33.058Z,10.11
2023-04-30T00:17:04.063Z,10.11
2023-04-30T00:17:37.644Z,10.11
2023-04-30T00:18:08.158Z,10.11
2023-04-30T00:18:40.872Z,10.11
2023-04-30T00:19:12.198Z,10.11
2023-04-30T00:19:44.705Z,10.11
2023-04-30T00:20:16.458Z,10.11
2023-04-30T00:20:49.044Z,10.11
2023-04-30T00:21:20.140Z,10.11
2023-04-30T00:21:52.861Z,10.11
2023-04-30T00:22:24.191Z,10.11
2023-04-30T00:22:56.892Z,10.11
2023-04-30T00:23:28.063Z,10.11
2023-04-30T00:24:00.980Z,10.11
2023-04-30T00:24:32.250Z,10.11
2023-04-30T00:25:05.204Z,10.11
2023-04-30T00:25:36.120Z,10.11
2023-04-30T00:26:09.090Z,10.11
2023-04-30T00:26:40.097Z,10.11
2023-04-30T00:27:13.026Z,10.11
2023-04-30T00:27:43.957Z,10.11
2023-04-30T00:28:16.814Z,10.11
2023-04-30T00:28:48.128Z,10.11
2023-04-30T00:29:20.755Z,10.11
2023-04-30T00:29:52.583Z,10.00
2023-04-30T00:30:26.161Z,10.00
2023-04-30T00:30:56.098Z,10.00
2023-04-30T00:31:29.006Z,10.00
2023-04-30T00:32:00.261Z,10.00
2023-04-30T00:32:33.157Z,10.00
2023-04-30T00:33:04.160Z,10.00
2023-04-30T00:33:37.542Z,10.00
2023-04-30T00:34:08.138Z,10.00
2023-04-30T00:34:40.788Z,10.00
2023-04-30T00:35:12.387Z,10.00
2023-04-30T00:35:45.031Z,10.00
2023-04-30T00:36:16.043Z,10.00
2023-04-30T00:36:48.850Z,10.00
2023-04-30T00:37:20.149Z,10.00
2023-04-30T00:37:53.076Z,10.00
2023-04-30T00:38:24.000Z,10.00
2023-04-30T00:38:56.901Z,10.00
2023-04-30T00:39:28.251Z,10.00
2023-04-30T00:40:01.310Z,10.00
2023-04-30T00:40:32.284Z,10.00
2023-04-30T00:41:04.941Z,10.00
2023-04-30T00:41:36.242Z,10.00
2023-04-30T00:42:08.982Z,10.00
2023-04-30T00:42:40.247Z,10.00
2023-04-30T00:43:13.012Z,10.00
2023-04-30T00:43:44.123Z,10.00
2023-04-30T00:44:17.030Z,10.00
2023-04-30T00:44:48.291Z,10.00
2023-04-30T00:45:21.943Z,10.00
2023-04-30T00:45:52.433Z,10.00
2023-04-30T00:46:25.970Z,10.00
2023-04-30T00:46:56.349Z,10.00
2023-04-30T00:47:29.064Z,10.00
2023-04-30T00:48:00.333Z,10.00
2023-04-30T00:48:32.982Z,10.00
2023-04-30T00:49:04.087Z,9.88
2023-04-30T00:49:37.776Z,9.88
2023-04-30T00:50:08.387Z,10.00
2023-04-30T00:50:40.829Z,10.00
2023-04-30T00:51:11.941Z,9.88
2023-04-30T00:51:44.818Z,9.88
2023-04-30T00:52:16.152Z,10.00
2023-04-30T00:52:49.067Z,10.00
2023-04-30T00:53:20.148Z,9.88
2023-04-30T00:53:52.961Z,9.88
2023-04-30T00:54:24.291Z,10.00
2023-04-30T00:54:56.879Z,10.00
2023-04-30T00:55:28.599Z,9.88
2023-04-30T00:56:00.895Z,9.88
2023-04-30T00:56:32.190Z,9.88
2023-04-30T00:57:04.992Z,9.88
2023-04-30T00:57:36.181Z,10.00
2023-04-30T00:58:09.014Z,10.00
2023-04-30T00:58:40.022Z,9.88
2023-04-30T00:58:56.210Z,9.88
2023-04-30T00:59:28.012Z,9.88
2023-04-30T01:00:02.126Z,9.88
2023-04-30T01:00:32.320Z,9.88
2023-04-30T01:01:04.087Z,9.88
2023-04-30T01:01:36.974Z,9.88
2023-04-30T01:02:08.068Z,9.88
2023-04-30T01:02:41.085Z,9.88
2023-04-30T01:03:12.004Z,9.88
2023-04-30T01:03:45.046Z,9.88
2023-04-30T01:04:16.146Z,9.88
2023-04-30T01:04:48.807Z,9.88
2023-04-30T01:05:20.427Z,9.88
2023-04-30T01:05:52.892Z,9.88
2023-04-30T01:06:24.267Z,9.88
2023-04-30T01:06:56.741Z,9.88
2023-04-30T01:07:28.049Z,9.88
2023-04-30T01:08:00.978Z,9.88
2023-04-30T01:08:32.116Z,9.88
2023-04-30T01:09:04.962Z,9.88
2023-04-30T01:09:36.228Z,9.88
2023-04-30T01:10:09.054Z,9.88
2023-04-30T01:10:40.023Z,9.88
2023-04-30T01:11:13.038Z,9.88
2023-04-30T01:11:44.086Z,9.88
2023-04-30T01:12:16.867Z,9.88
2023-04-30T01:12:48.138Z,9.88
2023-04-30T01:13:20.975Z,9.88
2023-04-30T01:13:52.232Z,9.88
2023-04-30T01:14:24.791Z,9.77
2023-04-30T01:14:56.184Z,9.77
2023-04-30T01:15:30.099Z,9.77
2023-04-30T01:16:00.273Z,9.77
2023-04-30T01:16:32.994Z,9.77
2023-04-30T01:17:04.194Z,9.77
2023-04-30T01:17:39.299Z,9.77
2023-04-30T01:18:08.093Z,9.77
2023-04-30T01:18:40.941Z,9.77
2023-04-30T01:19:12.096Z,9.77
2023-04-30T01:19:44.738Z,9.77
2023-04-30T01:20:16.356Z,9.77
2023-04-30T01:20:48.872Z,9.77
2023-04-30T01:21:20.024Z,9.77
2023-04-30T01:21:52.761Z,9.77
2023-04-30T01:22:24.123Z,9.77
2023-04-30T01:22:57.055Z,9.77
2023-04-30T01:23:28.070Z,9.77
2023-04-30T01:24:01.000Z,9.77
2023-04-30T01:24:32.182Z,9.77
2023-04-30T01:25:05.112Z,9.77
2023-04-30T01:25:36.144Z,9.77
2023-04-30T01:26:08.996Z,9.77
2023-04-30T01:26:40.090Z,9.77
2023-04-30T01:27:12.887Z,9.77
2023-04-30T01:27:44.076Z,9.77
2023-04-30T01:28:16.985Z,9.77
2023-04-30T01:28:48.325Z,9.77
2023-04-30T01:29:20.886Z,9.77
2023-04-30T01:29:52.500Z,9.77
2023-04-30T01:30:25.964Z,9.77
2023-04-30T01:30:56.265Z,9.77
2023-04-30T01:31:28.814Z,9.77
2023-04-30T01:32:00.145Z,9.77
2023-04-30T01:32:33.184Z,9.77
2023-04-30T01:33:04.348Z,9.77
2023-04-30T01:33:36.908Z,9.72
2023-04-30T01:34:08.154Z,9.72
2023-04-30T01:34:40.770Z,9.72
2023-04-30T01:35:12.446Z,9.72
2023-04-30T01:35:45.149Z,9.77
2023-04-30T01:36:16.045Z,9.77
2023-04-30T01:36:48.816Z,9.77
2023-04-30T01:37:20.154Z,9.77
2023-04-30T01:37:53.336Z,9.72
2023-04-30T01:38:24.047Z,9.72
2023-04-30T01:38:56.969Z,9.72
2023-04-30T01:39:28.366Z,9.72
2023-04-30T01:40:01.381Z,9.72
2023-04-30T01:40:32.146Z,9.72
2023-04-30T01:41:05.045Z,9.72
2023-04-30T01:41:36.255Z,9.72
2023-04-30T01:42:09.694Z,9.72
2023-04-30T01:42:40.244Z,9.72
2023-04-30T01:43:13.084Z,9.72
2023-04-30T01:43:44.129Z,9.72
2023-04-30T01:44:17.044Z,9.72
2023-04-30T01:44:48.149Z,9.72
2023-04-30T01:45:21.969Z,9.72
2023-04-30T01:45:52.339Z,9.72
2023-04-30T01:46:25.018Z,9.72
2023-04-30T01:46:56.206Z,9.72
2023-04-30T01:47:29.024Z,9.72
2023-04-30T01:48:00.277Z,9.72
2023-04-30T01:48:33.098Z,9.72
2023-04-30T01:49:04.191Z,9.72
2023-04-30T01:49:37.191Z,9.72
2023-04-30T01:50:08.314Z,9.72
2023-04-30T01:50:40.977Z,9.72
2023-04-30T01:51:11.993Z,9.72
2023-04-30T01:51:44.889Z,9.72
2023-04-30T01:52:16.116Z,9.72
2023-04-30T01:52:49.005Z,9.72
2023-04-30T01:53:20.008Z,9.72
2023-04-30T01:53:52.909Z,9.72
2023-04-30T01:54:24.077Z,9.72
2023-04-30T01:54:56.842Z,9.72
2023-04-30T01:55:28.318Z,9.72
2023-04-30T01:56:00.964Z,9.61
2023-04-30T01:56:32.484Z,9.61
2023-04-30T01:57:04.906Z,9.61
2023-04-30T01:57:36.072Z,9.61
2023-04-30T01:58:09.057Z,9.61
2023-04-30T01:58:39.971Z,9.61
2023-04-30T01:59:12.939Z,9.61
2023-04-30T01:59:44.178Z,9.61
2023-04-30T02:00:17.978Z,9.61
2023-04-30T02:00:48.161Z,9.61
2023-04-30T02:01:20.850Z,9.61
2023-04-30T02:01:52.283Z,9.61
2023-04-30T02:02:24.977Z,9.61
2023-04-30T02:02:56.151Z,9.61
2023-04-30T02:03:28.973Z,9.50
2023-04-30T02:04:00.477Z,9.50
2023-04-30T02:04:33.072Z,9.61
2023-04-30T02:05:04.436Z,9.61
2023-04-30T02:05:37.116Z,9.61
2023-04-30T02:06:08.179Z,9.61
2023-04-30T02:06:40.899Z,9.50
2023-04-30T02:07:12.212Z,9.50
2023-04-30T02:07:44.984Z,9.50
2023-04-30T02:08:16.072Z,9.50
2023-04-30T02:08:48.860Z,9.50
2023-04-30T02:09:20.199Z,9.50
2023-04-30T02:09:53.278Z,9.50
2023-04-30T02:10:24.471Z,9.50
2023-04-30T02:10:57.064Z,9.50
2023-04-30T02:11:27.991Z,9.50
2023-04-30T02:12:01.056Z,9.50
2023-04-30T02:12:32.170Z,9.50
2023-04-30T02:13:04.928Z,9.50
2023-04-30T02:13:36.137Z,9.50
2023-04-30T02:14:08.914Z,9.50
2023-04-30T02:14:40.161Z,9.50
2023-04-30T02:15:13.894Z,9.50
2023-04-30T02:15:44.349Z,9.50
2023-04-30T02:16:17.240Z,9.50
2023-04-30T02:16:48.028Z,9.50
2023-04-30T02:17:20.872Z,9.50
2023-04-30T02:17:52.211Z,9.50
2023-04-30T02:18:25.064Z,9.50
2023-04-30T02:18:56.006Z,9.50
2023-04-30T02:19:29.024Z,9.50
2023-04-30T02:20:00.640Z,9.50
2023-04-30T02:20:32.831Z,9.38
2023-04-30T02:21:04.222Z,9.38
2023-04-30T02:21:36.897Z,9.38
2023-04-30T02:22:08.232Z,9.38
2023-04-30T02:22:41.324Z,9.50
2023-04-30T02:23:12.110Z,9.50
2023-04-30T02:23:45.137Z,9.50
2023-04-30T02:24:16.043Z,9.50
2023-04-30T02:24:48.745Z,9.50
2023-04-30T02:25:20.421Z,9.50
2023-04-30T02:25:53.183Z,9.50
2023-04-30T02:26:24.210Z,9.50
2023-04-30T02:26:56.878Z,9.38
2023-04-30T02:27:28.252Z,9.38
2023-04-30T02:28:01.015Z,9.38
2023-04-30T02:28:32.214Z,9.38
2023-04-30T02:29:04.960Z,9.38
2023-04-30T02:29:36.281Z,9.38
2023-04-30T02:30:10.365Z,9.50
2023-04-30T02:30:40.308Z,9.50
2023-04-30T02:31:13.053Z,9.50
2023-04-30T02:31:44.083Z,9.50
2023-04-30T02:32:17.804Z,9.50
2023-04-30T02:32:48.283Z,9.50
2023-04-30T02:33:20.812Z,9.38
2023-04-30T02:33:52.270Z,9.38
2023-04-30T02:34:25.073Z,9.50
2023-04-30T02:34:56.180Z,9.50
2023-04-30T02:35:29.229Z,9.38
2023-04-30T02:36:00.161Z,9.38
2023-04-30T02:36:32.942Z,9.38
2023-04-30T02:37:04.009Z,9.38
2023-04-30T02:37:37.969Z,9.50
2023-04-30T02:38:08.123Z,9.50
2023-04-30T02:38:41.005Z,9.38
2023-04-30T02:39:11.903Z,9.38
2023-04-30T02:39:44.868Z,9.38
2023-04-30T02:40:16.484Z,9.38
2023-04-30T02:40:48.767Z,9.38
2023-04-30T02:41:20.109Z,9.38
2023-04-30T02:41:52.965Z,9.38
2023-04-30T02:42:24.294Z,9.38
2023-04-30T02:42:56.989Z,9.38
2023-04-30T02:43:28.122Z,9.38
2023-04-30T02:44:01.031Z,9.38
2023-04-30T02:44:32.133Z,9.38
2023-04-30T02:45:06.109Z,9.38
2023-04-30T02:45:36.491Z,9.38
2023-04-30T02:46:09.110Z,9.38
2023-04-30T02:46:40.113Z,9.38
2023-04-30T02:47:13.013Z,9.38
2023-04-30T02:47:44.260Z,9.38
2023-04-30T02:48:16.869Z,9.38
2023-04-30T02:48:48.156Z,9.38
2023-04-30T02:49:20.986Z,9.38
2023-04-30T02:49:52.498Z,9.38
2023-04-30T02:50:25.141Z,9.38
2023-04-30T02:50:56.105Z,9.38
2023-04-30T02:51:28.914Z,9.38
2023-04-30T02:52:00.107Z,9.38
2023-04-30T02:52:33.015Z,9.38
2023-04-30T02:53:04.240Z,9.38
2023-04-30T02:53:36.983Z,9.38
2023-04-30T02:54:08.108Z,9.38
2023-04-30T02:54:40.944Z,9.38
2023-04-30T02:55:12.471Z,9.38
2023-04-30T02:55:45.051Z,9.38
2023-04-30T02:56:16.060Z,9.38
2023-04-30T02:56:48.842Z,9.38
2023-04-30T02:57:20.225Z,9.38
2023-04-30T02:57:53.255Z,9.38
2023-04-30T02:58:24.136Z,9.38
2023-04-30T02:58:56.974Z,9.38
2023-04-30T02:59:28.011Z,9.38
2023-04-30T03:00:02.733Z,9.38
2023-04-30T03:00:32.383Z,9.38
2023-04-30T03:01:05.042Z,9.38
2023-04-30T03:01:36.125Z,9.38
2023-04-30T03:02:09.056Z,9.38
2023-04-30T03:02:40.305Z,9.38
2023-04-30T03:03:12.723Z,9.38
2023-04-30T03:03:44.158Z,9.38
2023-04-30T03:04:18.035Z,9.38
2023-04-30T03:04:48.345Z,9.38
2023-04-30T03:05:21.100Z,9.38
2023-04-30T03:05:52.271Z,9.38
2023-04-30T03:06:25.184Z,9.38
2023-04-30T03:06:56.152Z,9.38
2023-04-30T03:07:29.097Z,9.38
2023-04-30T03:08:00.141Z,9.38
2023-04-30T03:08:32.993Z,9.38
2023-04-30T03:09:04.004Z,9.38
2023-04-30T03:09:36.951Z,9.38
2023-04-30T03:10:08.377Z,9.38
2023-04-30T03:10:41.007Z,9.38
2023-04-30T03:11:11.997Z,9.38
2023-04-30T03:11:44.992Z,9.38
2023-04-30T03:12:16.176Z,9.38
2023-04-30T03:12:48.957Z,9.38
2023-04-30T03:13:20.184Z,9.38
2023-04-30T03:13:53.036Z,9.38
2023-04-30T03:14:24.132Z,9.38
2023-04-30T03:14:56.936Z,9.38
2023-04-30T03:15:29.325Z,9.38
2023-04-30T03:16:01.294Z,9.38
2023-04-30T03:16:32.135Z,9.38
2023-04-30T03:17:05.161Z,9.38
2023-04-30T03:17:36.331Z,9.38
2023-04-30T03:18:09.131Z,9.38
2023-04-30T03:18:40.072Z,9.38
2023-04-30T03:19:13.033Z,9.38
2023-04-30T03:19:44.231Z,9.38
2023-04-30T03:20:17.200Z,9.38
2023-04-30T03:20:48.206Z,9.38
2023-04-30T03:21:21.125Z,9.38
2023-04-30T03:21:52.137Z,9.38
2023-04-30T03:22:25.004Z,9.38
2023-04-30T03:22:56.148Z,9.38
2023-04-30T03:23:28.772Z,9.38
2023-04-30T03:24:00.164Z,9.38
2023-04-30T03:24:33.025Z,9.38
2023-04-30T03:25:04.535Z,9.38
2023-04-30T03:25:37.015Z,9.38
2023-04-30T03:26:08.369Z,9.38
2023-04-30T03:26:41.026Z,9.38
2023-04-30T03:27:12.075Z,9.38
2023-04-30T03:27:44.939Z,9.38
2023-04-30T03:28:16.269Z,9.38
2023-04-30T03:28:48.980Z,9.27
2023-04-30T03:29:20.149Z,9.27
2023-04-30T03:29:53.335Z,9.27
2023-04-30T03:30:25.056Z,9.27
2023-04-30T03:30:56.824Z,9.38
2023-04-30T03:31:28.267Z,9.38
2023-04-30T03:32:01.237Z,9.27
2023-04-30T03:32:32.251Z,9.27
2023-04-30T03:33:05.089Z,9.27
2023-04-30T03:33:36.415Z,9.27
2023-04-30T03:34:09.087Z,9.27
2023-04-30T03:34:40.054Z,9.27
2023-04-30T03:35:13.140Z,9.27
2023-04-30T03:35:44.325Z,9.27
2023-04-30T03:36:16.938Z,9.27
2023-04-30T03:36:48.159Z,9.27
2023-04-30T03:37:21.008Z,9.27
2023-04-30T03:37:52.299Z,9.27
2023-04-30T03:38:24.947Z,9.27
2023-04-30T03:38:56.212Z,9.27
2023-04-30T03:39:28.854Z,9.27
2023-04-30T03:40:00.137Z,9.27
2023-04-30T03:40:33.085Z,9.27
2023-04-30T03:41:04.245Z,9.27
2023-04-30T03:41:36.820Z,9.27
2023-04-30T03:42:08.104Z,9.27
2023-04-30T03:42:41.076Z,9.27
2023-04-30T03:43:12.179Z,9.27
2023-04-30T03:43:44.882Z,9.27
2023-04-30T03:44:16.297Z,9.27
2023-04-30T03:44:48.974Z,9.22
2023-04-30T03:45:21.061Z,9.22
2023-04-30T03:45:53.125Z,9.22
2023-04-30T03:46:24.304Z,9.22
2023-04-30T03:46:56.919Z,9.27
2023-04-30T03:47:28.068Z,9.27
2023-04-30T03:48:01.146Z,9.22
2023-04-30T03:48:32.277Z,9.22
2023-04-30T03:49:04.893Z,9.22
2023-04-30T03:49:36.260Z,9.22
2023-04-30T03:50:09.108Z,9.22
2023-04-30T03:50:39.979Z,9.22
2023-04-30T03:50:56.587Z,9.22
2023-04-30T03:51:28.149Z,9.22
2023-04-30T03:52:00.154Z,9.22
2023-04-30T03:52:32.916Z,9.22
2023-04-30T03:53:04.208Z,9.22
2023-04-30T03:53:36.948Z,9.22
2023-04-30T03:54:08.180Z,9.22
2023-04-30T03:54:40.955Z,9.22
2023-04-30T03:55:12.241Z,9.22
2023-04-30T03:55:44.827Z,9.22
2023-04-30T03:56:15.976Z,9.22
2023-04-30T03:56:48.978Z,9.22
2023-04-30T03:57:19.876Z,9.22
2023-04-30T03:57:52.976Z,9.22
2023-04-30T03:58:24.226Z,9.22
2023-04-30T03:58:56.941Z,9.11
2023-04-30T03:59:28.221Z,9.11
2023-04-30T04:00:02.799Z,9.22
2023-04-30T04:00:31.946Z,9.22
2023-04-30T04:01:05.030Z,9.22
2023-04-30T04:01:36.658Z,9.22
2023-04-30T04:02:09.610Z,9.22
2023-04-30T04:02:40.189Z,9.22
2023-04-30T04:03:13.270Z,9.22
2023-04-30T04:03:44.510Z,9.22
2023-04-30T04:04:17.440Z,9.22
2023-04-30T04:04:48.382Z,9.22
2023-04-30T04:05:21.625Z,9.22
2023-04-30T04:05:52.483Z,9.22
2023-04-30T04:06:25.258Z,9.11
2023-04-30T04:06:56.383Z,9.11
2023-04-30T04:07:29.347Z,9.11
2023-04-30T04:08:00.617Z,9.11
2023-04-30T04:08:33.407Z,9.11
2023-04-30T04:09:04.317Z,9.11
2023-04-30T04:09:41.391Z,9.11
2023-04-30T04:10:08.523Z,9.11
2023-04-30T04:10:40.375Z,9.11
2023-04-30T04:11:12.495Z,9.11
2023-04-30T04:11:44.437Z,9.11
2023-04-30T04:12:16.454Z,9.11
2023-04-30T04:12:48.348Z,9.11
2023-04-30T04:13:20.415Z,9.11
2023-04-30T04:13:52.450Z,9.11
2023-04-30T04:14:25.207Z,9.11
2023-04-30T04:14:56.422Z,9.11
2023-04-30T04:15:30.388Z,9.11
2023-04-30T04:16:00.487Z,9.11
2023-04-30T04:16:33.330Z,9.11
2023-04-30T04:17:04.437Z,9.11
2023-04-30T04:17:37.174Z,9.11
2023-04-30T04:18:08.481Z,9.11
2023-04-30T04:18:41.092Z,9.11
2023-04-30T04:19:12.405Z,9.11
2023-04-30T04:19:45.224Z,9.11
2023-04-30T04:20:16.641Z,9.11
2023-04-30T04:20:49.402Z,9.11
2023-04-30T04:21:20.378Z,9.11
2023-04-30T04:21:53.145Z,9.11
2023-04-30T04:22:24.468Z,9.11
2023-04-30T04:22:57.509Z,9.11
2023-04-30T04:23:28.282Z,9.11
2023-04-30T04:24:01.273Z,9.11
2023-04-30T04:24:32.454Z,9.11
2023-04-30T04:25:05.354Z,9.11
2023-04-30T04:25:36.360Z,9.11
2023-04-30T04:26:09.367Z,9.11
2023-04-30T04:26:40.374Z,9.11
2023-04-30T04:27:13.266Z,9.11
2023-04-30T04:27:44.378Z,9.11
2023-04-30T04:28:17.381Z,9.11
2023-04-30T04:28:48.180Z,9.11
2023-04-30T04:29:21.002Z,9.11
2023-04-30T04:29:52.573Z,9.11
2023-04-30T04:30:26.075Z,9.11
2023-04-30T04:30:56.579Z,9.11
2023-04-30T04:31:29.097Z,9.11
2023-04-30T04:32:00.659Z,9.11
2023-04-30T04:32:33.252Z,9.11
2023-04-30T04:33:04.485Z,9.22
2023-04-30T04:33:37.272Z,9.22
2023-04-30T04:34:08.526Z,9.11
2023-04-30T04:34:41.075Z,9.11
2023-04-30T04:35:12.623Z,9.22
2023-04-30T04:35:45.136Z,9.22
2023-04-30T04:36:16.274Z,9.11
2023-04-30T04:36:49.192Z,9.11
2023-04-30T04:37:20.415Z,9.22
2023-04-30T04:37:53.455Z,9.22
2023-04-30T04:38:24.294Z,9.22
2023-04-30T04:38:57.223Z,9.22
2023-04-30T04:39:28.436Z,9.22
2023-04-30T04:40:01.542Z,9.22
2023-04-30T04:40:32.371Z,9.22
2023-04-30T04:41:04.966Z,9.22
2023-04-30T04:41:36.246Z,9.22
2023-04-30T04:42:09.202Z,9.22
2023-04-30T04:42:40.414Z,9.22
2023-04-30T04:43:13.172Z,9.22
2023-04-30T04:43:44.290Z,9.22
2023-04-30T04:44:17.159Z,9.22
2023-04-30T04:44:48.361Z,9.22
2023-04-30T04:45:21.989Z,9.22
2023-04-30T04:45:52.557Z,9.22
2023-04-30T04:46:25.310Z,9.22
2023-04-30T04:46:56.606Z,9.27
2023-04-30T04:47:29.167Z,9.27
2023-04-30T04:48:00.461Z,9.22
2023-04-30T04:48:33.360Z,9.22
2023-04-30T04:49:04.462Z,9.27
2023-04-30T04:49:37.199Z,9.27
2023-04-30T04:50:08.650Z,9.27
2023-04-30T04:50:41.207Z,9.27
2023-04-30T04:51:12.320Z,9.27
2023-04-30T04:51:45.307Z,9.27
2023-04-30T04:52:16.517Z,9.27
2023-04-30T04:52:49.278Z,9.27
2023-04-30T04:53:20.367Z,9.27
2023-04-30T04:53:53.191Z,9.27
2023-04-30T04:54:24.514Z,9.27
2023-04-30T04:54:57.185Z,9.27
2023-04-30T04:55:28.949Z,9.38
2023-04-30T04:56:01.301Z,9.38
2023-04-30T04:56:32.669Z,9.27
2023-04-30T04:57:05.132Z,9.27
2023-04-30T04:57:36.495Z,9.38
2023-04-30T04:58:09.484Z,9.38
2023-04-30T04:58:40.305Z,9.38
2023-04-30T04:58:56.597Z,9.38
2023-04-30T04:59:28.272Z,9.38
2023-04-30T05:00:02.058Z,9.38
2023-04-30T05:00:32.452Z,9.50
2023-04-30T05:01:04.271Z,9.50
2023-04-30T05:01:37.201Z,9.38
2023-04-30T05:02:08.362Z,9.38
2023-04-30T05:02:42.324Z,9.50
2023-04-30T05:03:12.358Z,9.50
2023-04-30T05:03:46.317Z,9.50
2023-04-30T05:04:16.524Z,9.50
2023-04-30T05:04:49.387Z,9.50
2023-04-30T05:05:20.691Z,9.50
2023-04-30T05:05:53.218Z,9.50
2023-04-30T05:06:24.276Z,9.50
2023-04-30T05:06:57.209Z,9.50
2023-04-30T05:07:28.513Z,9.50
2023-04-30T05:08:01.130Z,9.61
2023-04-30T05:08:32.343Z,9.61
2023-04-30T05:09:05.096Z,9.61
2023-04-30T05:09:36.477Z,9.61
2023-04-30T05:10:09.585Z,9.61
2023-04-30T05:10:40.439Z,9.61
2023-04-30T05:11:15.398Z,9.72
2023-04-30T05:11:44.631Z,9.72
2023-04-30T05:12:17.182Z,9.72
2023-04-30T05:12:48.524Z,9.72
2023-04-30T05:13:21.205Z,9.72
2023-04-30T05:13:52.516Z,9.72
2023-04-30T05:14:25.176Z,9.72
2023-04-30T05:14:56.488Z,9.72
2023-04-30T05:15:30.437Z,9.77
2023-04-30T05:16:00.356Z,9.77
2023-04-30T05:16:33.354Z,9.77
2023-04-30T05:17:04.434Z,9.77
2023-04-30T05:17:37.579Z,9.77
2023-04-30T05:18:08.383Z,9.77
2023-04-30T05:18:41.319Z,9.77
2023-04-30T05:19:12.408Z,9.77
2023-04-30T05:19:45.260Z,9.88
2023-04-30T05:20:16.715Z,9.88
2023-04-30T05:20:49.274Z,9.88
2023-04-30T05:21:20.403Z,9.88
2023-04-30T05:21:53.368Z,10.00
2023-04-30T05:22:24.462Z,10.00
2023-04-30T05:22:57.577Z,10.00
2023-04-30T05:23:28.389Z,10.00
2023-04-30T05:24:01.081Z,10.00
2023-04-30T05:24:32.549Z,10.00
2023-04-30T05:25:05.535Z,10.11
2023-04-30T05:25:36.315Z,10.11
2023-04-30T05:26:09.211Z,10.11
2023-04-30T05:26:40.519Z,10.11
2023-04-30T05:27:13.207Z,10.11
2023-04-30T05:27:44.551Z,10.11
2023-04-30T05:28:17.188Z,10.22
2023-04-30T05:28:48.249Z,10.22
2023-04-30T05:29:21.086Z,10.22
2023-04-30T05:29:52.616Z,10.22
2023-04-30T05:30:26.253Z,10.22
2023-04-30T05:30:56.540Z,10.22
2023-04-30T05:31:29.085Z,10.27
2023-04-30T05:32:00.501Z,10.27
2023-04-30T05:32:33.326Z,10.27
2023-04-30T05:33:04.377Z,10.27
2023-04-30T05:33:37.295Z,10.27
2023-04-30T05:34:08.499Z,10.27
2023-04-30T05:34:41.249Z,10.27
2023-04-30T05:35:12.621Z,10.27
2023-04-30T05:35:44.982Z,10.38
2023-04-30T05:36:16.379Z,10.38
2023-04-30T05:36:49.191Z,10.38
2023-04-30T05:37:20.374Z,10.38
2023-04-30T05:37:53.365Z,10.38
2023-04-30T05:38:24.442Z,10.38
2023-04-30T05:38:58.289Z,10.50
2023-04-30T05:39:28.502Z,10.50
2023-04-30T05:40:01.589Z,10.50
2023-04-30T05:40:32.445Z,10.50
2023-04-30T05:41:05.174Z,10.50
2023-04-30T05:41:36.605Z,10.50
2023-04-30T05:42:09.134Z,10.61
2023-04-30T05:42:40.306Z,10.61
2023-04-30T05:43:13.064Z,10.61
2023-04-30T05:43:44.322Z,10.61
2023-04-30T05:44:17.235Z,10.61
2023-04-30T05:44:48.438Z,10.61
2023-04-30T05:45:22.444Z,10.61
2023-04-30T05:45:52.505Z,10.61
2023-04-30T05:46:25.265Z,10.72
2023-04-30T05:46:56.497Z,10.72
2023-04-30T05:47:29.127Z,10.72
2023-04-30T05:48:00.329Z,10.72
2023-04-30T05:48:33.097Z,10.77
2023-04-30T05:49:04.558Z,10.77
2023-04-30T05:49:39.495Z,10.77
2023-04-30T05:50:08.625Z,10.77
2023-04-30T05:50:41.405Z,10.77
2023-04-30T05:51:12.307Z,10.77
2023-04-30T05:51:45.264Z,10.88
2023-04-30T05:52:16.408Z,10.88
2023-04-30T05:52:49.303Z,10.88
2023-04-30T05:53:20.410Z,10.88
2023-04-30T05:53:53.301Z,10.88
2023-04-30T05:54:24.508Z,10.88
2023-04-30T05:54:57.150Z,11.00
2023-04-30T05:55:28.775Z,11.00
2023-04-30T05:56:01.328Z,11.00
2023-04-30T05:56:32.599Z,11.00
2023-04-30T05:57:05.195Z,11.00
2023-04-30T05:57:36.764Z,11.00
2023-04-30T05:58:09.668Z,11.11
2023-04-30T05:58:40.599Z,11.11
2023-04-30T05:59:13.486Z,11.11
2023-04-30T05:59:44.814Z,11.11
2023-04-30T06:00:18.595Z,11.11
2023-04-30T06:00:48.704Z,11.11
2023-04-30T06:01:21.533Z,11.22
2023-04-30T06:01:52.758Z,11.22
2023-04-30T06:02:25.439Z,11.22
2023-04-30T06:02:56.469Z,11.22
2023-04-30T06:03:29.649Z,11.22
2023-04-30T06:04:00.582Z,11.22
2023-04-30T06:04:33.596Z,11.27
2023-04-30T06:05:05.109Z,11.27
2023-04-30T06:05:37.238Z,11.27
2023-04-30T06:06:08.636Z,11.27
2023-04-30T06:06:41.695Z,11.38
2023-04-30T06:07:12.808Z,11.38
2023-04-30T06:07:45.623Z,11.38
2023-04-30T06:08:16.646Z,11.38
2023-04-30T06:08:49.652Z,11.38
2023-04-30T06:09:20.909Z,11.38
2023-04-30T06:09:53.655Z,11.50
2023-04-30T06:10:25.034Z,11.50
2023-04-30T06:10:57.419Z,11.50
2023-04-30T06:11:28.770Z,11.50
2023-04-30T06:12:01.689Z,11.61
2023-04-30T06:12:32.846Z,11.61
2023-04-30T06:13:05.492Z,11.61
2023-04-30T06:13:36.846Z,11.61
2023-04-30T06:14:09.638Z,11.72
2023-04-30T06:14:40.472Z,11.72
2023-04-30T06:15:14.194Z,11.77
2023-04-30T06:15:44.695Z,11.77
2023-04-30T06:16:17.206Z,11.77
2023-04-30T06:16:48.815Z,11.77
2023-04-30T06:17:21.770Z,11.77
2023-04-30T06:17:52.941Z,11.77
2023-04-30T06:18:25.517Z,11.88
2023-04-30T06:18:56.702Z,11.88
2023-04-30T06:19:29.429Z,12.00
2023-04-30T06:20:01.279Z,12.00
2023-04-30T06:20:33.539Z,12.11
2023-04-30T06:21:04.810Z,12.11
2023-04-30T06:21:38.578Z,12.27
2023-04-30T06:22:08.721Z,12.27
2023-04-30T06:22:41.782Z,12.50
2023-04-30T06:23:12.894Z,12.50
2023-04-30T06:23:45.576Z,12.72
2023-04-30T06:24:16.770Z,12.72
2023-04-30T06:24:49.744Z,12.88
2023-04-30T06:25:21.067Z,12.88
2023-04-30T06:25:53.614Z,13.11
2023-04-30T06:26:24.885Z,13.11
2023-04-30T06:26:57.518Z,13.27
2023-04-30T06:27:28.719Z,13.27
2023-04-30T06:28:01.859Z,13.38
2023-04-30T06:28:32.814Z,13.38
2023-04-30T06:29:05.650Z,13.61
2023-04-30T06:29:36.734Z,13.61
2023-04-30T06:30:10.683Z,13.77
2023-04-30T06:30:40.906Z,13.77
2023-04-30T06:30:57.292Z,13.77
2023-04-30T06:31:28.741Z,13.88
2023-04-30T06:32:00.750Z,13.88
2023-04-30T06:32:32.805Z,14.00
2023-04-30T06:33:04.838Z,14.00
2023-04-30T06:33:37.618Z,14.00
2023-04-30T06:34:08.861Z,14.00
2023-04-30T06:34:41.454Z,14.11
2023-04-30T06:35:12.952Z,14.11
2023-04-30T06:35:45.726Z,14.11
2023-04-30T06:36:16.828Z,14.11
2023-04-30T06:36:49.825Z,14.22
2023-04-30T06:37:20.767Z,14.22
2023-04-30T06:37:53.843Z,14.22
2023-04-30T06:38:24.693Z,14.22
2023-04-30T06:38:57.786Z,14.22
2023-04-30T06:39:28.770Z,14.22
2023-04-30T06:40:02.072Z,14.22
2023-04-30T06:40:32.786Z,14.22
2023-04-30T06:41:05.540Z,14.27
2023-04-30T06:41:36.941Z,14.27
2023-04-30T06:42:09.438Z,14.27
2023-04-30T06:42:40.839Z,14.27
2023-04-30T06:43:13.902Z,14.38
2023-04-30T06:43:44.655Z,14.38
2023-04-30T06:44:17.390Z,14.38
2023-04-30T06:44:48.915Z,14.38
2023-04-30T06:45:22.927Z,14.38
2023-04-30T06:45:52.874Z,14.38
2023-04-30T06:46:25.703Z,14.50
2023-04-30T06:46:56.998Z,14.50
2023-04-30T06:47:29.660Z,14.50
2023-04-30T06:48:00.955Z,14.50
2023-04-30T06:48:33.633Z,14.61
2023-04-30T06:49:04.802Z,14.61
2023-04-30T06:49:37.696Z,14.61
2023-04-30T06:50:09.187Z,14.61
2023-04-30T06:50:41.526Z,14.61
2023-04-30T06:51:12.837Z,14.61
2023-04-30T06:51:45.715Z,14.72
2023-04-30T06:52:16.886Z,14.72
2023-04-30T06:52:49.756Z,14.72
2023-04-30T06:53:20.681Z,14.72
2023-04-30T06:53:53.737Z,14.72
2023-04-30T06:54:24.879Z,14.72
2023-04-30T06:54:57.588Z,14.77
2023-04-30T06:55:29.140Z,14.77
2023-04-30T06:56:01.836Z,14.77
2023-04-30T06:56:32.968Z,14.77
2023-04-30T06:57:05.780Z,14.88
2023-04-30T06:57:36.838Z,14.88
2023-04-30T06:58:09.564Z,14.88
2023-04-30T06:58:40.790Z,14.88
2023-04-30T06:59:13.789Z,14.88